sensor_id;sensor_type;location;lat;lon;timestamp;P1;durP1;ratioP1;P2;durP2;ratioP2
2386;SDS011;49473;50.772;8.768;2024-01-25T00:00:17;22.40;;;6.60;;
2386;SDS011;49473;50.772;8.768;2024-01-25T00:02:44;20.70;;;5.60;;
2386;SDS011;49473;50.772;8.768;2024-01-25T00:05:11;17.03;;;5.77;;
2386;SDS011;49473;50.772;8.768;2024-01-25T00:07:46;24.00;;;6.77;;
2386;SDS011;49473;50.772;8.768;2024-01-25T00:10:12;20.10;;;5.43;;
2386;SDS011;49473;50.772;8.768;2024-01-25T00:12:39;25.30;;;6.70;;
2386;SDS011;49473;50.772;8.768;2024-01-25T00:15:07;24.60;;;6.30;;
2386;SDS011;49473;50.772;8.768;2024-01-25T00:17:34;22.33;;;5.87;;
2386;SDS011;49473;50.772;8.768;2024-01-25T00:20:00;21.10;;;6.10;;
2386;SDS011;49473;50.772;8.768;2024-01-25T00:22:28;24.60;;;6.77;;
2386;SDS011;49473;50.772;8.768;2024-01-25T00:24:56;20.53;;;6.57;;
2386;SDS011;49473;50.772;8.768;2024-01-25T00:27:23;18.50;;;5.63;;
2386;SDS011;49473;50.772;8.768;2024-01-25T00:29:50;18.20;;;5.80;;
2386;SDS011;49473;50.772;8.768;2024-01-25T00:32:17;23.30;;;6.67;;
2386;SDS011;49473;50.772;8.768;2024-01-25T00:34:44;22.17;;;7.03;;
2386;SDS011;49473;50.772;8.768;2024-01-25T00:37:11;13.30;;;5.50;;
2386;SDS011;49473;50.772;8.768;2024-01-25T00:39:38;21.00;;;6.30;;
2386;SDS011;49473;50.772;8.768;2024-01-25T00:42:07;16.27;;;5.20;;
2386;SDS011;49473;50.772;8.768;2024-01-25T00:44:38;18.60;;;5.97;;
2386;SDS011;49473;50.772;8.768;2024-01-25T00:47:05;17.87;;;6.10;;
2386;SDS011;49473;50.772;8.768;2024-01-25T00:49:33;17.87;;;6.30;;
2386;SDS011;49473;50.772;8.768;2024-01-25T00:52:00;25.00;;;6.33;;
2386;SDS011;49473;50.772;8.768;2024-01-25T00:54:29;21.00;;;6.10;;
2386;SDS011;49473;50.772;8.768;2024-01-25T00:56:56;20.73;;;6.73;;
2386;SDS011;49473;50.772;8.768;2024-01-25T00:59:25;17.70;;;5.23;;
2386;SDS011;49473;50.772;8.768;2024-01-25T01:01:53;25.83;;;6.73;;
2386;SDS011;49473;50.772;8.768;2024-01-25T01:04:21;17.40;;;6.13;;
2386;SDS011;49473;50.772;8.768;2024-01-25T01:06:48;20.93;;;6.80;;
2386;SDS011;49473;50.772;8.768;2024-01-25T01:09:17;23.80;;;7.10;;
2386;SDS011;49473;50.772;8.768;2024-01-25T01:11:43;19.90;;;6.50;;
2386;SDS011;49473;50.772;8.768;2024-01-25T01:14:10;16.77;;;6.90;;
2386;SDS011;49473;50.772;8.768;2024-01-25T01:16:38;22.00;;;7.10;;
2386;SDS011;49473;50.772;8.768;2024-01-25T01:19:05;22.87;;;7.40;;
2386;SDS011;49473;50.772;8.768;2024-01-25T01:21:32;22.70;;;6.00;;
2386;SDS011;49473;50.772;8.768;2024-01-25T01:23:59;16.77;;;6.37;;
2386;SDS011;49473;50.772;8.768;2024-01-25T01:26:26;19.63;;;6.27;;
2386;SDS011;49473;50.772;8.768;2024-01-25T01:28:53;19.33;;;7.57;;
2386;SDS011;49473;50.772;8.768;2024-01-25T01:31:19;21.83;;;7.60;;
2386;SDS011;49473;50.772;8.768;2024-01-25T01:33:47;20.57;;;7.43;;
2386;SDS011;49473;50.772;8.768;2024-01-25T01:36:14;20.50;;;7.27;;
2386;SDS011;49473;50.772;8.768;2024-01-25T01:38:41;23.23;;;7.07;;
2386;SDS011;49473;50.772;8.768;2024-01-25T01:41:09;21.87;;;6.60;;
2386;SDS011;49473;50.772;8.768;2024-01-25T01:43:36;27.23;;;7.20;;
2386;SDS011;49473;50.772;8.768;2024-01-25T01:46:04;12.97;;;6.00;;
2386;SDS011;49473;50.772;8.768;2024-01-25T01:48:35;20.57;;;6.67;;
2386;SDS011;49473;50.772;8.768;2024-01-25T01:51:03;20.83;;;6.40;;
2386;SDS011;49473;50.772;8.768;2024-01-25T01:53:30;24.17;;;7.93;;
2386;SDS011;49473;50.772;8.768;2024-01-25T01:55:58;18.07;;;7.47;;
2386;SDS011;49473;50.772;8.768;2024-01-25T01:58:25;25.30;;;8.00;;
2386;SDS011;49473;50.772;8.768;2024-01-25T02:00:55;21.03;;;7.13;;
2386;SDS011;49473;50.772;8.768;2024-01-25T02:03:24;18.03;;;7.80;;
2386;SDS011;49473;50.772;8.768;2024-01-25T02:05:51;21.73;;;6.80;;
2386;SDS011;49473;50.772;8.768;2024-01-25T02:08:19;17.07;;;7.47;;
2386;SDS011;49473;50.772;8.768;2024-01-25T02:10:45;17.70;;;6.80;;
2386;SDS011;49473;50.772;8.768;2024-01-25T02:13:12;22.30;;;7.03;;
2386;SDS011;49473;50.772;8.768;2024-01-25T02:15:39;18.97;;;6.63;;
2386;SDS011;49473;50.772;8.768;2024-01-25T02:18:06;21.60;;;7.57;;
2386;SDS011;49473;50.772;8.768;2024-01-25T02:20:32;20.63;;;7.77;;
2386;SDS011;49473;50.772;8.768;2024-01-25T02:23:00;15.43;;;6.67;;
2386;SDS011;49473;50.772;8.768;2024-01-25T02:25:27;20.53;;;8.27;;
2386;SDS011;49473;50.772;8.768;2024-01-25T02:27:54;20.63;;;6.47;;
2386;SDS011;49473;50.772;8.768;2024-01-25T02:30:21;16.90;;;6.40;;
2386;SDS011;49473;50.772;8.768;2024-01-25T02:32:47;18.30;;;6.20;;
2386;SDS011;49473;50.772;8.768;2024-01-25T02:35:14;20.23;;;6.87;;
2386;SDS011;49473;50.772;8.768;2024-01-25T02:37:41;21.80;;;6.50;;
2386;SDS011;49473;50.772;8.768;2024-01-25T02:40:09;29.40;;;7.30;;
2386;SDS011;49473;50.772;8.768;2024-01-25T02:42:37;16.93;;;6.00;;
2386;SDS011;49473;50.772;8.768;2024-01-25T02:45:04;16.37;;;6.80;;
2386;SDS011;49473;50.772;8.768;2024-01-25T02:47:31;18.13;;;6.77;;
2386;SDS011;49473;50.772;8.768;2024-01-25T02:49:57;21.27;;;6.90;;
2386;SDS011;49473;50.772;8.768;2024-01-25T02:52:24;21.97;;;6.53;;
2386;SDS011;49473;50.772;8.768;2024-01-25T02:54:51;21.20;;;7.07;;
2386;SDS011;49473;50.772;8.768;2024-01-25T02:57:19;19.70;;;6.30;;
2386;SDS011;49473;50.772;8.768;2024-01-25T02:59:45;17.70;;;6.33;;
2386;SDS011;49473;50.772;8.768;2024-01-25T03:02:12;21.70;;;7.13;;
2386;SDS011;49473;50.772;8.768;2024-01-25T03:04:39;15.90;;;6.47;;
2386;SDS011;49473;50.772;8.768;2024-01-25T03:07:06;21.93;;;8.07;;
2386;SDS011;49473;50.772;8.768;2024-01-25T03:09:32;24.50;;;6.80;;
2386;SDS011;49473;50.772;8.768;2024-01-25T03:11:59;23.30;;;7.03;;
2386;SDS011;49473;50.772;8.768;2024-01-25T03:14:27;20.77;;;6.33;;
2386;SDS011;49473;50.772;8.768;2024-01-25T03:16:54;18.10;;;6.20;;
2386;SDS011;49473;50.772;8.768;2024-01-25T03:19:23;17.23;;;6.23;;
2386;SDS011;49473;50.772;8.768;2024-01-25T03:21:51;21.70;;;6.50;;
2386;SDS011;49473;50.772;8.768;2024-01-25T03:24:17;17.87;;;6.80;;
2386;SDS011;49473;50.772;8.768;2024-01-25T03:26:44;20.40;;;6.83;;
2386;SDS011;49473;50.772;8.768;2024-01-25T03:29:11;21.00;;;7.33;;
2386;SDS011;49473;50.772;8.768;2024-01-25T03:31:39;23.47;;;7.67;;
2386;SDS011;49473;50.772;8.768;2024-01-25T03:34:06;16.27;;;6.47;;
2386;SDS011;49473;50.772;8.768;2024-01-25T03:36:32;21.50;;;6.60;;
2386;SDS011;49473;50.772;8.768;2024-01-25T03:39:01;20.17;;;6.80;;
2386;SDS011;49473;50.772;8.768;2024-01-25T03:41:28;16.20;;;6.57;;
2386;SDS011;49473;50.772;8.768;2024-01-25T03:43:55;18.57;;;6.70;;
2386;SDS011;49473;50.772;8.768;2024-01-25T03:46:21;20.40;;;7.00;;
2386;SDS011;49473;50.772;8.768;2024-01-25T03:48:49;19.93;;;6.80;;
2386;SDS011;49473;50.772;8.768;2024-01-25T03:51:16;18.07;;;7.00;;
2386;SDS011;49473;50.772;8.768;2024-01-25T03:53:43;23.60;;;7.13;;
2386;SDS011;49473;50.772;8.768;2024-01-25T03:56:12;17.17;;;6.30;;
2386;SDS011;49473;50.772;8.768;2024-01-25T03:58:42;20.40;;;6.67;;
2386;SDS011;49473;50.772;8.768;2024-01-25T04:01:09;25.50;;;8.10;;
2386;SDS011;49473;50.772;8.768;2024-01-25T04:03:35;20.73;;;7.33;;
2386;SDS011;49473;50.772;8.768;2024-01-25T04:06:04;15.37;;;6.37;;
2386;SDS011;49473;50.772;8.768;2024-01-25T04:08:31;14.47;;;6.20;;
2386;SDS011;49473;50.772;8.768;2024-01-25T04:10:57;16.73;;;6.63;;
2386;SDS011;49473;50.772;8.768;2024-01-25T04:13:24;14.83;;;6.97;;
2386;SDS011;49473;50.772;8.768;2024-01-25T04:15:51;19.27;;;7.03;;
2386;SDS011;49473;50.772;8.768;2024-01-25T04:18:17;19.33;;;6.40;;
2386;SDS011;49473;50.772;8.768;2024-01-25T04:20:44;17.00;;;6.23;;
2386;SDS011;49473;50.772;8.768;2024-01-25T04:23:13;20.23;;;8.37;;
2386;SDS011;49473;50.772;8.768;2024-01-25T04:25:40;19.13;;;6.10;;
2386;SDS011;49473;50.772;8.768;2024-01-25T04:28:07;18.40;;;6.43;;
2386;SDS011;49473;50.772;8.768;2024-01-25T04:30:33;19.27;;;6.17;;
2386;SDS011;49473;50.772;8.768;2024-01-25T04:33:00;21.20;;;6.63;;
2386;SDS011;49473;50.772;8.768;2024-01-25T04:35:28;19.60;;;7.53;;
2386;SDS011;49473;50.772;8.768;2024-01-25T04:37:56;17.13;;;6.23;;
2386;SDS011;49473;50.772;8.768;2024-01-25T04:40:24;16.43;;;5.77;;
2386;SDS011;49473;50.772;8.768;2024-01-25T04:42:51;16.97;;;5.90;;
2386;SDS011;49473;50.772;8.768;2024-01-25T04:45:18;25.00;;;6.60;;
2386;SDS011;49473;50.772;8.768;2024-01-25T04:47:44;18.17;;;6.43;;
2386;SDS011;49473;50.772;8.768;2024-01-25T04:50:11;15.10;;;5.97;;
2386;SDS011;49473;50.772;8.768;2024-01-25T04:52:38;13.33;;;5.43;;
2386;SDS011;49473;50.772;8.768;2024-01-25T04:55:05;18.10;;;6.43;;
2386;SDS011;49473;50.772;8.768;2024-01-25T04:57:34;19.37;;;6.13;;
2386;SDS011;49473;50.772;8.768;2024-01-25T05:00:00;15.40;;;5.70;;
2386;SDS011;49473;50.772;8.768;2024-01-25T05:02:28;16.77;;;6.53;;
2386;SDS011;49473;50.772;8.768;2024-01-25T05:04:54;16.30;;;5.30;;
2386;SDS011;49473;50.772;8.768;2024-01-25T05:07:21;25.53;;;7.47;;
2386;SDS011;49473;50.772;8.768;2024-01-25T05:09:48;13.43;;;5.67;;
2386;SDS011;49473;50.772;8.768;2024-01-25T05:12:14;20.77;;;7.03;;
2386;SDS011;49473;50.772;8.768;2024-01-25T05:14:42;21.93;;;6.63;;
2386;SDS011;49473;50.772;8.768;2024-01-25T05:17:09;19.40;;;6.63;;
2386;SDS011;49473;50.772;8.768;2024-01-25T05:19:36;18.17;;;7.17;;
2386;SDS011;49473;50.772;8.768;2024-01-25T05:22:03;20.47;;;7.17;;
2386;SDS011;49473;50.772;8.768;2024-01-25T05:24:31;15.77;;;5.07;;
2386;SDS011;49473;50.772;8.768;2024-01-25T05:26:58;22.10;;;6.53;;
2386;SDS011;49473;50.772;8.768;2024-01-25T05:29:25;16.47;;;5.90;;
2386;SDS011;49473;50.772;8.768;2024-01-25T05:31:53;11.30;;;5.40;;
2386;SDS011;49473;50.772;8.768;2024-01-25T05:34:20;18.20;;;6.00;;
2386;SDS011;49473;50.772;8.768;2024-01-25T05:36:46;16.47;;;5.80;;
2386;SDS011;49473;50.772;8.768;2024-01-25T05:39:14;14.97;;;6.87;;
2386;SDS011;49473;50.772;8.768;2024-01-25T05:41:42;13.10;;;5.97;;
2386;SDS011;49473;50.772;8.768;2024-01-25T05:44:10;22.43;;;7.80;;
2386;SDS011;49473;50.772;8.768;2024-01-25T05:46:37;16.20;;;6.50;;
2386;SDS011;49473;50.772;8.768;2024-01-25T05:49:05;16.50;;;6.23;;
2386;SDS011;49473;50.772;8.768;2024-01-25T05:51:32;22.20;;;5.77;;
2386;SDS011;49473;50.772;8.768;2024-01-25T05:53:59;17.03;;;5.30;;
2386;SDS011;49473;50.772;8.768;2024-01-25T05:56:25;16.40;;;5.33;;
2386;SDS011;49473;50.772;8.768;2024-01-25T05:58:52;21.27;;;5.90;;
2386;SDS011;49473;50.772;8.768;2024-01-25T06:01:19;17.70;;;6.13;;
2386;SDS011;49473;50.772;8.768;2024-01-25T06:03:45;15.50;;;5.90;;
2386;SDS011;49473;50.772;8.768;2024-01-25T06:06:14;14.70;;;5.80;;
2386;SDS011;49473;50.772;8.768;2024-01-25T06:08:41;13.40;;;5.67;;
2386;SDS011;49473;50.772;8.768;2024-01-25T06:11:08;15.70;;;6.57;;
2386;SDS011;49473;50.772;8.768;2024-01-25T06:13:36;18.33;;;6.60;;
2386;SDS011;49473;50.772;8.768;2024-01-25T06:16:03;18.63;;;7.30;;
2386;SDS011;49473;50.772;8.768;2024-01-25T06:18:30;17.17;;;6.53;;
2386;SDS011;49473;50.772;8.768;2024-01-25T06:20:56;14.33;;;6.03;;
2386;SDS011;49473;50.772;8.768;2024-01-25T06:23:25;21.30;;;5.90;;
2386;SDS011;49473;50.772;8.768;2024-01-25T06:25:52;17.07;;;6.70;;
2386;SDS011;49473;50.772;8.768;2024-01-25T06:28:18;20.57;;;6.03;;
2386;SDS011;49473;50.772;8.768;2024-01-25T06:30:46;19.70;;;6.67;;
2386;SDS011;49473;50.772;8.768;2024-01-25T06:33:13;14.80;;;6.60;;
2386;SDS011;49473;50.772;8.768;2024-01-25T06:35:39;17.03;;;5.83;;
2386;SDS011;49473;50.772;8.768;2024-01-25T06:38:06;16.87;;;5.70;;
2386;SDS011;49473;50.772;8.768;2024-01-25T06:40:34;17.80;;;5.33;;
2386;SDS011;49473;50.772;8.768;2024-01-25T06:43:01;15.60;;;6.10;;
2386;SDS011;49473;50.772;8.768;2024-01-25T06:45:28;16.07;;;5.90;;
2386;SDS011;49473;50.772;8.768;2024-01-25T06:47:55;23.20;;;6.80;;
2386;SDS011;49473;50.772;8.768;2024-01-25T06:50:22;20.07;;;6.30;;
2386;SDS011;49473;50.772;8.768;2024-01-25T06:52:49;17.07;;;6.70;;
2386;SDS011;49473;50.772;8.768;2024-01-25T06:55:18;15.10;;;6.70;;
2386;SDS011;49473;50.772;8.768;2024-01-25T06:57:46;16.23;;;6.30;;
2386;SDS011;49473;50.772;8.768;2024-01-25T07:00:14;17.67;;;6.00;;
2386;SDS011;49473;50.772;8.768;2024-01-25T07:02:41;19.77;;;5.70;;
2386;SDS011;49473;50.772;8.768;2024-01-25T07:05:08;15.33;;;5.63;;
2386;SDS011;49473;50.772;8.768;2024-01-25T07:07:35;19.60;;;5.90;;
2386;SDS011;49473;50.772;8.768;2024-01-25T07:10:03;25.33;;;6.23;;
2386;SDS011;49473;50.772;8.768;2024-01-25T07:12:31;16.00;;;5.57;;
2386;SDS011;49473;50.772;8.768;2024-01-25T07:14:59;15.73;;;5.20;;
2386;SDS011;49473;50.772;8.768;2024-01-25T07:17:25;15.77;;;6.73;;
2386;SDS011;49473;50.772;8.768;2024-01-25T07:19:52;22.43;;;5.57;;
2386;SDS011;49473;50.772;8.768;2024-01-25T07:22:19;18.83;;;6.23;;
2386;SDS011;49473;50.772;8.768;2024-01-25T07:24:47;13.73;;;4.97;;
2386;SDS011;49473;50.772;8.768;2024-01-25T07:27:14;11.47;;;5.53;;
2386;SDS011;49473;50.772;8.768;2024-01-25T07:29:43;12.63;;;5.53;;
2386;SDS011;49473;50.772;8.768;2024-01-25T07:32:11;16.90;;;5.67;;
2386;SDS011;49473;50.772;8.768;2024-01-25T07:34:38;17.17;;;5.40;;
2386;SDS011;49473;50.772;8.768;2024-01-25T07:37:05;15.80;;;5.67;;
2386;SDS011;49473;50.772;8.768;2024-01-25T07:39:32;14.20;;;5.87;;
2386;SDS011;49473;50.772;8.768;2024-01-25T07:41:58;18.80;;;5.30;;
2386;SDS011;49473;50.772;8.768;2024-01-25T07:44:25;15.93;;;5.70;;
2386;SDS011;49473;50.772;8.768;2024-01-25T07:46:52;18.43;;;5.97;;
2386;SDS011;49473;50.772;8.768;2024-01-25T07:49:20;25.43;;;6.53;;
2386;SDS011;49473;50.772;8.768;2024-01-25T07:51:47;16.63;;;6.10;;
2386;SDS011;49473;50.772;8.768;2024-01-25T07:54:14;16.93;;;6.07;;
2386;SDS011;49473;50.772;8.768;2024-01-25T07:56:40;16.33;;;6.93;;
2386;SDS011;49473;50.772;8.768;2024-01-25T07:59:07;15.63;;;6.33;;
2386;SDS011;49473;50.772;8.768;2024-01-25T08:01:34;14.30;;;5.63;;
2386;SDS011;49473;50.772;8.768;2024-01-25T08:04:01;17.33;;;6.97;;
2386;SDS011;49473;50.772;8.768;2024-01-25T08:06:29;17.07;;;6.20;;
2386;SDS011;49473;50.772;8.768;2024-01-25T08:08:57;10.10;;;5.50;;
2386;SDS011;49473;50.772;8.768;2024-01-25T08:11:24;16.80;;;6.20;;
2386;SDS011;49473;50.772;8.768;2024-01-25T08:13:50;18.00;;;6.53;;
2386;SDS011;49473;50.772;8.768;2024-01-25T08:16:17;17.37;;;6.33;;
2386;SDS011;49473;50.772;8.768;2024-01-25T08:18:45;13.63;;;5.73;;
2386;SDS011;49473;50.772;8.768;2024-01-25T08:21:12;19.20;;;6.90;;
2386;SDS011;49473;50.772;8.768;2024-01-25T08:23:40;20.17;;;6.60;;
2386;SDS011;49473;50.772;8.768;2024-01-25T08:26:07;19.90;;;5.53;;
2386;SDS011;49473;50.772;8.768;2024-01-25T08:28:34;16.03;;;5.73;;
2386;SDS011;49473;50.772;8.768;2024-01-25T08:31:01;16.20;;;5.43;;
2386;SDS011;49473;50.772;8.768;2024-01-25T08:33:28;17.77;;;5.70;;
2386;SDS011;49473;50.772;8.768;2024-01-25T08:35:54;17.60;;;6.27;;
2386;SDS011;49473;50.772;8.768;2024-01-25T08:38:21;15.07;;;5.53;;
2386;SDS011;49473;50.772;8.768;2024-01-25T08:40:50;20.73;;;5.70;;
2386;SDS011;49473;50.772;8.768;2024-01-25T08:43:17;14.67;;;5.40;;
2386;SDS011;49473;50.772;8.768;2024-01-25T08:45:44;17.07;;;5.60;;
2386;SDS011;49473;50.772;8.768;2024-01-25T08:48:11;16.60;;;5.47;;
2386;SDS011;49473;50.772;8.768;2024-01-25T08:50:38;14.80;;;5.03;;
2386;SDS011;49473;50.772;8.768;2024-01-25T08:53:05;16.97;;;5.83;;
2386;SDS011;49473;50.772;8.768;2024-01-25T08:55:32;18.37;;;6.03;;
2386;SDS011;49473;50.772;8.768;2024-01-25T08:58:00;15.60;;;6.20;;
2386;SDS011;49473;50.772;8.768;2024-01-25T09:00:26;19.07;;;6.77;;
2386;SDS011;49473;50.772;8.768;2024-01-25T09:02:53;12.53;;;5.33;;
2386;SDS011;49473;50.772;8.768;2024-01-25T09:05:20;13.40;;;6.17;;
2386;SDS011;49473;50.772;8.768;2024-01-25T09:07:47;16.73;;;5.40;;
2386;SDS011;49473;50.772;8.768;2024-01-25T09:10:15;14.57;;;5.30;;
2386;SDS011;49473;50.772;8.768;2024-01-25T09:12:42;13.40;;;5.00;;
2386;SDS011;49473;50.772;8.768;2024-01-25T09:15:10;12.10;;;5.37;;
2386;SDS011;49473;50.772;8.768;2024-01-25T09:17:37;15.20;;;5.10;;
2386;SDS011;49473;50.772;8.768;2024-01-25T09:20:04;16.93;;;4.90;;
2386;SDS011;49473;50.772;8.768;2024-01-25T09:22:32;13.60;;;4.90;;
2386;SDS011;49473;50.772;8.768;2024-01-25T09:24:59;13.70;;;4.43;;
2386;SDS011;49473;50.772;8.768;2024-01-25T09:27:26;13.20;;;4.70;;
2386;SDS011;49473;50.772;8.768;2024-01-25T09:29:53;14.67;;;5.50;;
2386;SDS011;49473;50.772;8.768;2024-01-25T09:32:21;15.10;;;4.47;;
2386;SDS011;49473;50.772;8.768;2024-01-25T09:34:48;11.43;;;4.87;;
2386;SDS011;49473;50.772;8.768;2024-01-25T09:37:14;11.57;;;4.30;;
2386;SDS011;49473;50.772;8.768;2024-01-25T09:39:42;14.77;;;5.07;;
2386;SDS011;49473;50.772;8.768;2024-01-25T09:42:09;12.23;;;4.90;;
2386;SDS011;49473;50.772;8.768;2024-01-25T09:44:38;19.33;;;5.07;;
2386;SDS011;49473;50.772;8.768;2024-01-25T09:47:07;15.23;;;5.53;;
2386;SDS011;49473;50.772;8.768;2024-01-25T09:49:36;16.73;;;4.30;;
2386;SDS011;49473;50.772;8.768;2024-01-25T09:52:03;17.57;;;4.83;;
2386;SDS011;49473;50.772;8.768;2024-01-25T09:54:31;14.80;;;5.47;;
2386;SDS011;49473;50.772;8.768;2024-01-25T09:57:01;16.80;;;4.70;;
2386;SDS011;49473;50.772;8.768;2024-01-25T09:59:34;12.43;;;5.50;;
2386;SDS011;49473;50.772;8.768;2024-01-25T10:02:01;14.10;;;5.03;;
2386;SDS011;49473;50.772;8.768;2024-01-25T10:04:27;17.60;;;5.43;;
2386;SDS011;49473;50.772;8.768;2024-01-25T10:06:56;14.00;;;5.50;;
2386;SDS011;49473;50.772;8.768;2024-01-25T10:09:24;15.93;;;5.20;;
2386;SDS011;49473;50.772;8.768;2024-01-25T10:11:52;10.63;;;5.00;;
2386;SDS011;49473;50.772;8.768;2024-01-25T10:14:19;14.00;;;5.07;;
2386;SDS011;49473;50.772;8.768;2024-01-25T10:16:46;16.07;;;5.40;;
2386;SDS011;49473;50.772;8.768;2024-01-25T10:19:12;15.83;;;5.13;;
2386;SDS011;49473;50.772;8.768;2024-01-25T10:21:41;13.83;;;4.70;;
2386;SDS011;49473;50.772;8.768;2024-01-25T10:24:09;18.47;;;5.30;;
2386;SDS011;49473;50.772;8.768;2024-01-25T10:26:36;12.93;;;5.13;;
2386;SDS011;49473;50.772;8.768;2024-01-25T10:29:03;12.60;;;4.90;;
2386;SDS011;49473;50.772;8.768;2024-01-25T10:31:30;20.43;;;5.70;;
2386;SDS011;49473;50.772;8.768;2024-01-25T10:33:57;19.77;;;5.20;;
2386;SDS011;49473;50.772;8.768;2024-01-25T10:36:25;20.67;;;5.70;;
2386;SDS011;49473;50.772;8.768;2024-01-25T10:38:53;13.50;;;5.17;;
2386;SDS011;49473;50.772;8.768;2024-01-25T10:41:22;10.23;;;5.50;;
2386;SDS011;49473;50.772;8.768;2024-01-25T10:43:50;18.17;;;5.27;;
2386;SDS011;49473;50.772;8.768;2024-01-25T10:46:16;17.53;;;6.27;;
2386;SDS011;49473;50.772;8.768;2024-01-25T10:48:44;13.57;;;5.47;;
2386;SDS011;49473;50.772;8.768;2024-01-25T10:51:11;15.73;;;5.63;;
2386;SDS011;49473;50.772;8.768;2024-01-25T10:53:43;17.33;;;6.33;;
2386;SDS011;49473;50.772;8.768;2024-01-25T10:56:10;15.50;;;6.67;;
2386;SDS011;49473;50.772;8.768;2024-01-25T10:58:41;14.97;;;6.20;;
2386;SDS011;49473;50.772;8.768;2024-01-25T11:01:09;15.43;;;6.40;;
2386;SDS011;49473;50.772;8.768;2024-01-25T11:03:36;19.73;;;7.03;;
2386;SDS011;49473;50.772;8.768;2024-01-25T11:06:06;13.70;;;6.07;;
2386;SDS011;49473;50.772;8.768;2024-01-25T11:08:34;16.20;;;6.50;;
2386;SDS011;49473;50.772;8.768;2024-01-25T11:11:03;18.33;;;6.80;;
2386;SDS011;49473;50.772;8.768;2024-01-25T11:13:32;18.33;;;7.07;;
2386;SDS011;49473;50.772;8.768;2024-01-25T11:16:11;17.07;;;6.77;;
2386;SDS011;49473;50.772;8.768;2024-01-25T11:18:47;15.80;;;6.27;;
2386;SDS011;49473;50.772;8.768;2024-01-25T11:21:22;16.03;;;6.23;;
2386;SDS011;49473;50.772;8.768;2024-01-25T11:23:58;10.80;;;5.83;;
2386;SDS011;49473;50.772;8.768;2024-01-25T11:26:25;15.83;;;5.93;;
2386;SDS011;49473;50.772;8.768;2024-01-25T11:28:52;21.40;;;7.13;;
2386;SDS011;49473;50.772;8.768;2024-01-25T11:31:20;11.23;;;7.40;;
2386;SDS011;49473;50.772;8.768;2024-01-25T11:33:48;15.90;;;7.17;;
2386;SDS011;49473;50.772;8.768;2024-01-25T11:36:15;19.73;;;6.67;;
2386;SDS011;49473;50.772;8.768;2024-01-25T11:38:45;17.47;;;6.40;;
2386;SDS011;49473;50.772;8.768;2024-01-25T11:41:12;17.33;;;6.77;;
2386;SDS011;49473;50.772;8.768;2024-01-25T11:43:39;17.37;;;6.50;;
2386;SDS011;49473;50.772;8.768;2024-01-25T11:46:06;15.30;;;5.50;;
2386;SDS011;49473;50.772;8.768;2024-01-25T11:48:38;13.47;;;5.57;;
2386;SDS011;49473;50.772;8.768;2024-01-25T11:51:04;13.93;;;5.60;;
2386;SDS011;49473;50.772;8.768;2024-01-25T11:53:31;14.27;;;5.70;;
2386;SDS011;49473;50.772;8.768;2024-01-25T11:55:58;16.93;;;6.57;;
2386;SDS011;49473;50.772;8.768;2024-01-25T11:58:25;19.27;;;6.20;;
2386;SDS011;49473;50.772;8.768;2024-01-25T12:00:52;16.73;;;6.27;;
2386;SDS011;49473;50.772;8.768;2024-01-25T12:03:19;18.37;;;6.63;;
2386;SDS011;49473;50.772;8.768;2024-01-25T12:05:48;11.47;;;5.00;;
2386;SDS011;49473;50.772;8.768;2024-01-25T12:08:15;15.07;;;6.67;;
2386;SDS011;49473;50.772;8.768;2024-01-25T12:10:42;14.77;;;4.80;;
2386;SDS011;49473;50.772;8.768;2024-01-25T12:13:09;14.83;;;6.10;;
2386;SDS011;49473;50.772;8.768;2024-01-25T12:15:36;11.33;;;5.40;;
2386;SDS011;49473;50.772;8.768;2024-01-25T12:18:03;9.87;;;5.40;;
2386;SDS011;49473;50.772;8.768;2024-01-25T12:20:33;11.90;;;5.23;;
2386;SDS011;49473;50.772;8.768;2024-01-25T12:23:03;12.93;;;5.40;;
2386;SDS011;49473;50.772;8.768;2024-01-25T12:25:31;13.40;;;5.10;;
2386;SDS011;49473;50.772;8.768;2024-01-25T12:27:59;11.00;;;4.30;;
2386;SDS011;49473;50.772;8.768;2024-01-25T12:30:26;10.30;;;4.63;;
2386;SDS011;49473;50.772;8.768;2024-01-25T12:32:53;11.83;;;5.50;;
2386;SDS011;49473;50.772;8.768;2024-01-25T12:35:19;12.70;;;5.10;;
2386;SDS011;49473;50.772;8.768;2024-01-25T12:37:46;11.60;;;4.83;;
2386;SDS011;49473;50.772;8.768;2024-01-25T12:40:14;11.93;;;4.80;;
2386;SDS011;49473;50.772;8.768;2024-01-25T12:42:41;15.77;;;4.83;;
2386;SDS011;49473;50.772;8.768;2024-01-25T12:45:08;12.10;;;5.67;;
2386;SDS011;49473;50.772;8.768;2024-01-25T12:47:35;13.13;;;5.17;;
2386;SDS011;49473;50.772;8.768;2024-01-25T12:50:02;15.03;;;5.37;;
2386;SDS011;49473;50.772;8.768;2024-01-25T12:52:29;11.00;;;5.63;;
2386;SDS011;49473;50.772;8.768;2024-01-25T12:54:56;16.17;;;6.60;;
2386;SDS011;49473;50.772;8.768;2024-01-25T12:57:24;19.03;;;7.63;;
2386;SDS011;49473;50.772;8.768;2024-01-25T12:59:50;13.60;;;6.23;;
2386;SDS011;49473;50.772;8.768;2024-01-25T13:02:17;12.73;;;6.17;;
2386;SDS011;49473;50.772;8.768;2024-01-25T13:04:44;13.97;;;6.23;;
2386;SDS011;49473;50.772;8.768;2024-01-25T13:07:11;14.30;;;5.43;;
2386;SDS011;49473;50.772;8.768;2024-01-25T13:09:37;13.40;;;5.33;;
2386;SDS011;49473;50.772;8.768;2024-01-25T13:12:04;11.93;;;4.57;;
2386;SDS011;49473;50.772;8.768;2024-01-25T13:14:33;14.77;;;5.23;;
2386;SDS011;49473;50.772;8.768;2024-01-25T13:16:59;16.30;;;6.07;;
2386;SDS011;49473;50.772;8.768;2024-01-25T13:19:26;13.23;;;5.20;;
2386;SDS011;49473;50.772;8.768;2024-01-25T13:21:53;18.57;;;6.33;;
2386;SDS011;49473;50.772;8.768;2024-01-25T13:24:19;9.93;;;5.23;;
2386;SDS011;49473;50.772;8.768;2024-01-25T13:26:47;17.30;;;4.67;;
2386;SDS011;49473;50.772;8.768;2024-01-25T13:29:14;17.93;;;5.27;;
2386;SDS011;49473;50.772;8.768;2024-01-25T13:31:42;9.83;;;4.80;;
2386;SDS011;49473;50.772;8.768;2024-01-25T13:34:08;11.53;;;4.50;;
2386;SDS011;49473;50.772;8.768;2024-01-25T13:36:35;12.50;;;4.80;;
2386;SDS011;49473;50.772;8.768;2024-01-25T13:39:02;16.30;;;4.77;;
2386;SDS011;49473;50.772;8.768;2024-01-25T13:41:29;15.53;;;4.97;;
2386;SDS011;49473;50.772;8.768;2024-01-25T13:43:56;14.03;;;5.60;;
2386;SDS011;49473;50.772;8.768;2024-01-25T13:46:23;15.93;;;5.17;;
2386;SDS011;49473;50.772;8.768;2024-01-25T13:48:51;14.80;;;4.83;;
2386;SDS011;49473;50.772;8.768;2024-01-25T13:51:17;9.90;;;4.57;;
2386;SDS011;49473;50.772;8.768;2024-01-25T13:53:44;15.00;;;4.83;;
2386;SDS011;49473;50.772;8.768;2024-01-25T13:56:12;13.07;;;4.10;;
2386;SDS011;49473;50.772;8.768;2024-01-25T13:58:39;17.17;;;5.43;;
2386;SDS011;49473;50.772;8.768;2024-01-25T14:01:06;12.17;;;4.57;;
2386;SDS011;49473;50.772;8.768;2024-01-25T14:03:33;26.40;;;5.20;;
2386;SDS011;49473;50.772;8.768;2024-01-25T14:06:01;15.20;;;4.30;;
2386;SDS011;49473;50.772;8.768;2024-01-25T14:08:29;13.97;;;4.50;;
2386;SDS011;49473;50.772;8.768;2024-01-25T14:10:56;13.37;;;4.63;;
2386;SDS011;49473;50.772;8.768;2024-01-25T14:13:23;11.47;;;4.27;;
2386;SDS011;49473;50.772;8.768;2024-01-25T14:15:49;10.63;;;4.77;;
2386;SDS011;49473;50.772;8.768;2024-01-25T14:18:16;15.73;;;5.03;;
2386;SDS011;49473;50.772;8.768;2024-01-25T14:20:43;15.33;;;4.50;;
2386;SDS011;49473;50.772;8.768;2024-01-25T14:23:11;17.53;;;5.50;;
2386;SDS011;49473;50.772;8.768;2024-01-25T14:25:39;17.10;;;4.93;;
2386;SDS011;49473;50.772;8.768;2024-01-25T14:28:05;12.53;;;4.60;;
2386;SDS011;49473;50.772;8.768;2024-01-25T14:30:32;18.23;;;7.07;;
2386;SDS011;49473;50.772;8.768;2024-01-25T14:32:59;16.30;;;6.30;;
2386;SDS011;49473;50.772;8.768;2024-01-25T14:35:25;13.83;;;6.87;;
2386;SDS011;49473;50.772;8.768;2024-01-25T14:37:54;15.23;;;5.83;;
2386;SDS011;49473;50.772;8.768;2024-01-25T14:40:22;13.83;;;6.30;;
2386;SDS011;49473;50.772;8.768;2024-01-25T14:42:50;14.57;;;6.10;;
2386;SDS011;49473;50.772;8.768;2024-01-25T14:45:17;15.37;;;5.20;;
2386;SDS011;49473;50.772;8.768;2024-01-25T14:47:44;17.63;;;5.70;;